createdAt,value
2022-12-13T00:02:06.954Z,-0.30
2022-12-13T00:04:35.756Z,-0.40
2022-12-13T00:07:04.569Z,-0.50
2022-12-13T00:09:33.304Z,-0.70
2022-12-13T00:12:04.979Z,-0.80
2022-12-13T00:14:34.228Z,-0.80
2022-12-13T00:17:03.162Z,-0.90
2022-12-13T00:19:31.757Z,-0.90
2022-12-13T00:22:00.390Z,-0.90
2022-12-13T00:24:29.030Z,-1.00
2022-12-13T00:26:57.643Z,-1.10
2022-12-13T00:29:27.871Z,-1.10
2022-12-13T00:32:01.070Z,-1.10
2022-12-13T00:34:30.576Z,-1.10
2022-12-13T00:37:00.571Z,-1.10
2022-12-13T00:39:29.826Z,-1.00
2022-12-13T00:41:58.731Z,-1.00
2022-12-13T00:44:28.793Z,-1.00
2022-12-13T00:46:57.687Z,-0.90
2022-12-13T00:49:26.510Z,-1.00
2022-12-13T00:51:55.105Z,-0.90
2022-12-13T00:54:23.765Z,-0.90
2022-12-13T00:56:52.810Z,-0.90
2022-12-13T00:59:21.938Z,-1.00
2022-12-13T01:01:52.017Z,-1.00
2022-12-13T01:04:20.754Z,-1.00
2022-12-13T01:06:51.601Z,-1.00
2022-12-13T01:09:22.974Z,-1.00
2022-12-13T01:11:51.846Z,-1.00
2022-12-13T01:14:20.771Z,-1.00
2022-12-13T01:16:49.711Z,-1.20
2022-12-13T01:19:19.753Z,-1.20
2022-12-13T01:21:48.394Z,-1.20
2022-12-13T01:24:20.790Z,-1.30
2022-12-13T01:26:49.480Z,-1.40
2022-12-13T01:29:18.301Z,-1.50
2022-12-13T01:31:46.923Z,-1.50
2022-12-13T01:34:17.732Z,-1.60
2022-12-13T01:36:49.532Z,-1.60
2022-12-13T01:39:26.669Z,-1.50
2022-12-13T01:42:00.188Z,-1.60
2022-12-13T01:45:01.194Z,-1.70
2022-12-13T01:47:35.012Z,-1.70
2022-12-13T01:50:08.073Z,-1.70
2022-12-13T01:52:39.148Z,-1.60
2022-12-13T01:55:10.480Z,-1.50
2022-12-13T01:57:45.369Z,-1.40
2022-12-13T02:00:15.923Z,-1.30
2022-12-13T02:02:45.000Z,-1.30
2022-12-13T02:05:18.226Z,-1.30
2022-12-13T02:07:51.529Z,-1.30
2022-12-13T02:10:20.717Z,-1.30
2022-12-13T02:12:49.736Z,-1.30
2022-12-13T02:15:20.434Z,-1.20
2022-12-13T02:18:04.030Z,-1.10
2022-12-13T02:20:58.860Z,-1.00
2022-12-13T02:24:14.021Z,-1.00
2022-12-13T02:27:02.554Z,-0.90
2022-12-13T02:30:02.751Z,-0.90
2022-12-13T02:32:40.846Z,-0.90
2022-12-13T02:35:15.620Z,-0.80
2022-12-13T02:37:52.044Z,-0.70
2022-12-13T02:40:27.879Z,-0.70
2022-12-13T02:43:03.080Z,-0.70
2022-12-13T02:45:36.234Z,-0.70
2022-12-13T02:48:08.914Z,-0.60
2022-12-13T02:50:38.235Z,-0.60
2022-12-13T02:53:08.482Z,-0.60
2022-12-13T02:55:40.657Z,-0.60
2022-12-13T02:58:12.985Z,-0.70
2022-12-13T03:00:52.983Z,-0.80
2022-12-13T03:03:34.346Z,-0.80
2022-12-13T03:06:34.137Z,-0.90
2022-12-13T03:09:25.046Z,-0.80
2022-12-13T03:12:30.327Z,-0.80
2022-12-13T03:15:03.699Z,-0.80
2022-12-13T03:17:39.578Z,-0.80
2022-12-13T03:20:22.765Z,-0.70
2022-12-13T03:22:52.467Z,-0.70
2022-12-13T03:25:30.909Z,-0.70
2022-12-13T03:28:02.535Z,-0.70
2022-12-13T03:30:32.437Z,-0.70
2022-12-13T03:33:01.388Z,-0.70
2022-12-13T03:35:34.962Z,-0.60
2022-12-13T03:38:22.059Z,-0.60
2022-12-13T03:40:54.636Z,-0.60
2022-12-13T03:43:23.934Z,-0.60
2022-12-13T03:45:53.183Z,-0.50
2022-12-13T03:48:23.497Z,-0.60
2022-12-13T03:50:55.809Z,-0.50
2022-12-13T03:53:33.813Z,-0.50
2022-12-13T03:56:04.280Z,-0.50
2022-12-13T03:58:34.998Z,-0.40
2022-12-13T04:01:07.355Z,-0.40
2022-12-13T04:03:36.505Z,-0.40
2022-12-13T04:06:07.628Z,-0.40
2022-12-13T04:08:36.535Z,-0.30
2022-12-13T04:11:25.990Z,-0.40
2022-12-13T04:13:53.912Z,-0.30
2022-12-13T04:16:23.427Z,-0.30
2022-12-13T04:18:52.452Z,-0.30
2022-12-13T04:21:22.535Z,-0.20
2022-12-13T04:23:51.140Z,-0.20
2022-12-13T04:26:20.007Z,-0.20
2022-12-13T04:28:54.217Z,-0.20
2022-12-13T04:31:23.497Z,-0.30
2022-12-13T04:33:52.551Z,-0.20
2022-12-13T04:36:31.601Z,-0.20
2022-12-13T04:39:02.343Z,-0.20
2022-12-13T04:41:36.348Z,-0.30
2022-12-13T04:44:06.261Z,-0.30
2022-12-13T04:46:55.126Z,-0.30
2022-12-13T04:49:30.369Z,-0.30
2022-12-13T04:52:01.846Z,-0.30
2022-12-13T04:54:35.621Z,-0.30
2022-12-13T04:57:07.070Z,-0.30
2022-12-13T04:59:35.733Z,-0.30
2022-12-13T05:02:05.184Z,-0.30
2022-12-13T05:04:33.946Z,-0.20
2022-12-13T05:07:04.132Z,-0.30
2022-12-13T05:09:33.113Z,-0.30
2022-12-13T05:12:02.228Z,-0.20
2022-12-13T05:14:31.309Z,-0.20
2022-12-13T05:17:00.217Z,-0.20
2022-12-13T05:19:30.926Z,-0.20
2022-12-13T05:22:02.193Z,-0.20
2022-12-13T05:24:35.201Z,-0.30
2022-12-13T05:27:24.399Z,-0.40
2022-12-13T05:30:02.146Z,-0.40
2022-12-13T05:32:42.605Z,-0.40
2022-12-13T05:35:12.027Z,-0.30
2022-12-13T05:37:40.929Z,-0.30
2022-12-13T05:40:12.275Z,-0.30
2022-12-13T05:42:41.314Z,-0.40
2022-12-13T05:45:10.899Z,-0.40
2022-12-13T05:47:40.046Z,-0.40
2022-12-13T05:50:09.367Z,-0.40
2022-12-13T05:52:38.374Z,-0.40
2022-12-13T05:55:07.430Z,-0.40
2022-12-13T05:57:38.094Z,-0.40
2022-12-13T06:00:30.231Z,-0.40
2022-12-13T06:02:57.091Z,-0.40
2022-12-13T06:05:29.332Z,-0.40
2022-12-13T06:07:59.350Z,-0.50
2022-12-13T06:10:38.032Z,-0.40
2022-12-13T06:13:21.977Z,-0.40
2022-12-13T06:16:02.455Z,-0.40
2022-12-13T06:18:32.979Z,-0.50
2022-12-13T06:21:03.602Z,-0.50
2022-12-13T06:23:33.139Z,-0.50
2022-12-13T06:26:04.773Z,-0.50
2022-12-13T06:28:34.929Z,-0.60
2022-12-13T06:31:03.987Z,-0.50
2022-12-13T06:33:35.756Z,-0.50
2022-12-13T06:36:05.703Z,-0.50
2022-12-13T06:38:34.591Z,-0.50
2022-12-13T06:41:13.243Z,-0.60
2022-12-13T06:43:45.876Z,-0.70
2022-12-13T06:46:15.420Z,-0.60
2022-12-13T06:48:44.733Z,-0.70
2022-12-13T06:51:13.341Z,-0.80
2022-12-13T06:53:51.851Z,-0.80
2022-12-13T06:56:20.607Z,-0.80
2022-12-13T06:58:50.943Z,-0.80
2022-12-13T07:01:24.460Z,-0.90
2022-12-13T07:03:56.048Z,-0.80
2022-12-13T07:06:26.288Z,-0.90
2022-12-13T07:08:57.981Z,-0.90
2022-12-13T07:11:28.596Z,-0.90
2022-12-13T07:13:58.759Z,-0.90
2022-12-13T07:16:29.198Z,-0.90
2022-12-13T07:19:01.071Z,-0.90
2022-12-13T07:21:31.238Z,-0.90
2022-12-13T07:24:01.456Z,-0.90
2022-12-13T07:26:30.224Z,-0.90
2022-12-13T07:29:00.787Z,-0.90
2022-12-13T07:31:29.599Z,-0.90
2022-12-13T07:33:58.471Z,-0.90
2022-12-13T07:36:27.081Z,-1.00
2022-12-13T07:38:57.074Z,-0.90
2022-12-13T07:41:27.278Z,-0.80
2022-12-13T07:43:57.142Z,-0.80
2022-12-13T07:46:32.914Z,-0.70
2022-12-13T07:49:03.195Z,-0.80
2022-12-13T07:51:32.147Z,-0.70
2022-12-13T07:54:00.943Z,-0.80
2022-12-13T07:56:35.527Z,-0.70
2022-12-13T07:59:04.675Z,-0.80
2022-12-13T08:01:35.759Z,-0.80
2022-12-13T08:04:05.077Z,-0.70
2022-12-13T08:06:37.215Z,-0.70
2022-12-13T08:09:06.521Z,-0.70
2022-12-13T08:11:35.342Z,-0.70
2022-12-13T08:14:03.953Z,-0.70
2022-12-13T08:16:32.650Z,-0.70
2022-12-13T08:19:04.521Z,-0.60
2022-12-13T08:21:53.797Z,-0.60
2022-12-13T08:24:23.946Z,-0.60
2022-12-13T08:26:52.987Z,-0.70
2022-12-13T08:29:23.503Z,-0.70
2022-12-13T08:32:04.693Z,-0.60
2022-12-13T08:34:34.901Z,-0.60
2022-12-13T08:37:04.386Z,-0.60
2022-12-13T08:39:35.715Z,-0.60
2022-12-13T08:42:14.810Z,-0.60
2022-12-13T08:44:51.754Z,-0.60
2022-12-13T08:47:24.134Z,-0.60
2022-12-13T08:50:01.283Z,-0.70
2022-12-13T08:52:39.627Z,-0.70
2022-12-13T08:55:10.660Z,-0.70
2022-12-13T08:57:39.705Z,-0.70
2022-12-13T09:00:11.721Z,-0.60
2022-12-13T09:02:40.975Z,-0.60
2022-12-13T09:05:13.069Z,-0.50
2022-12-13T09:07:42.252Z,-0.50
2022-12-13T09:10:25.716Z,-0.60
2022-12-13T09:13:01.687Z,-0.60
2022-12-13T09:15:34.513Z,-0.70
2022-12-13T09:18:05.680Z,-0.70
2022-12-13T09:20:40.907Z,-0.80
2022-12-13T09:23:23.715Z,-0.70
2022-12-13T09:26:05.296Z,-0.70
2022-12-13T09:28:37.268Z,-0.70
2022-12-13T09:31:08.852Z,-0.80
2022-12-13T09:33:41.108Z,-0.90
2022-12-13T09:36:14.469Z,-0.90
2022-12-13T09:38:43.518Z,-0.90
2022-12-13T09:41:28.954Z,-0.90
2022-12-13T09:44:02.244Z,-0.70
2022-12-13T09:46:34.832Z,-0.50
2022-12-13T09:49:22.624Z,-0.30
2022-12-13T09:52:21.414Z,-0.20
2022-12-13T09:54:48.811Z,-0.20
2022-12-13T09:57:31.367Z,-0.10
2022-12-13T10:00:03.699Z,-0.20
2022-12-13T10:02:35.410Z,-0.20
2022-12-13T10:05:22.650Z,-0.20
2022-12-13T10:07:57.903Z,-0.10
2022-12-13T10:10:26.762Z,-0.20
2022-12-13T10:13:01.101Z,-0.10
2022-12-13T10:15:30.947Z,-0.10
2022-12-13T10:18:01.164Z,-0.20
2022-12-13T10:20:31.288Z,-0.10
2022-12-13T10:23:31.223Z,-0.10
2022-12-13T10:26:03.235Z,-0.20
2022-12-13T10:28:34.990Z,-0.20
2022-12-13T10:31:04.020Z,-0.30
2022-12-13T10:33:34.671Z,-0.40
2022-12-13T10:36:09.329Z,-0.30
2022-12-13T10:38:41.858Z,-0.20
2022-12-13T10:41:35.141Z,-0.10
2022-12-13T10:44:25.578Z,0.00
2022-12-13T10:47:17.312Z,0.10
2022-12-13T10:49:58.886Z,0.10
2022-12-13T10:52:32.075Z,0.10
2022-12-13T10:55:22.717Z,0.20
2022-12-13T10:57:54.038Z,0.30
2022-12-13T11:00:38.417Z,0.40
2022-12-13T11:03:07.691Z,0.40
2022-12-13T11:05:38.713Z,0.40
2022-12-13T11:08:18.096Z,0.40
2022-12-13T11:10:57.424Z,0.30
2022-12-13T11:13:34.340Z,0.20
2022-12-13T11:16:05.201Z,0.20
2022-12-13T11:18:39.104Z,0.30
2022-12-13T11:21:09.382Z,0.20
2022-12-13T11:23:44.757Z,0.20
2022-12-13T11:26:23.961Z,0.10
2022-12-13T11:29:14.234Z,-0.10
2022-12-13T11:31:50.611Z,-0.20
2022-12-13T11:34:28.397Z,-0.50
2022-12-13T11:37:03.029Z,-0.70
2022-12-13T11:39:35.691Z,-0.90
2022-12-13T11:42:17.275Z,-1.20
2022-12-13T11:44:57.321Z,-1.30
2022-12-13T11:47:29.630Z,-1.40
2022-12-13T11:50:00.507Z,-1.50
2022-12-13T11:52:34.875Z,-1.60
2022-12-13T11:55:08.672Z,-1.70
2022-12-13T11:57:46.954Z,-1.70
2022-12-13T12:00:35.560Z,-1.80
2022-12-13T12:03:17.791Z,-1.80
2022-12-13T12:05:56.179Z,-1.80
2022-12-13T12:08:43.690Z,-1.80
2022-12-13T12:11:18.925Z,-1.70
2022-12-13T12:13:53.713Z,-1.60
2022-12-13T12:16:35.450Z,-1.60
2022-12-13T12:19:04.922Z,-1.40
2022-12-13T12:24:36.274Z,-1.20
2022-12-13T12:27:24.274Z,-1.20
2022-12-13T12:30:12.480Z,-1.40
2022-12-13T12:32:48.731Z,-1.50
2022-12-13T12:35:31.589Z,-1.60
2022-12-13T12:38:10.587Z,-1.60
2022-12-13T12:43:46.391Z,-1.30
2022-12-13T12:46:52.207Z,-1.20
2022-12-13T12:49:44.322Z,-1.10
2022-12-13T12:52:19.004Z,-1.00
2022-12-13T12:55:03.545Z,-1.00
2022-12-13T12:57:41.205Z,-0.80
2022-12-13T13:00:15.710Z,-0.80
2022-12-13T13:02:51.567Z,-0.70
2022-12-13T13:05:24.579Z,-0.70
2022-12-13T13:07:59.385Z,-0.80
2022-12-13T13:10:28.747Z,-0.90
2022-12-13T13:13:32.917Z,-1.10
2022-12-13T13:15:57.054Z,-1.10
2022-12-13T13:18:48.151Z,-1.00
2022-12-13T13:21:47.897Z,-0.90
2022-12-13T13:24:27.258Z,-1.00
2022-12-13T13:26:58.490Z,-1.00
2022-12-13T13:29:38.686Z,-0.90
2022-12-13T13:32:33.676Z,-1.10
2022-12-13T13:35:44.027Z,-1.10
2022-12-13T13:38:49.665Z,-1.20
2022-12-13T13:42:03.618Z,-1.30
2022-12-13T13:44:52.143Z,-1.30
2022-12-13T13:47:42.618Z,-1.30
2022-12-13T13:50:46.837Z,-1.40
2022-12-13T13:53:53.666Z,-1.40
2022-12-13T13:56:50.284Z,-1.50
2022-12-13T13:59:55.991Z,-1.50
2022-12-13T14:03:01.298Z,-1.50
2022-12-13T14:06:15.125Z,-1.50
2022-12-13T14:09:02.232Z,-1.60
2022-12-13T14:12:21.640Z,-1.60
2022-12-13T14:15:35.986Z,-1.70
2022-12-13T14:18:45.407Z,-1.80
2022-12-13T14:21:23.215Z,-1.90
2022-12-13T14:24:04.385Z,-2.00
2022-12-13T14:26:44.314Z,-2.10
2022-12-13T14:29:25.458Z,-2.20
2022-12-13T14:31:54.347Z,-2.30
2022-12-13T14:34:26.742Z,-2.40
2022-12-13T14:37:03.949Z,-2.50
2022-12-13T14:39:36.079Z,-2.50
2022-12-13T14:42:23.412Z,-2.60
2022-12-13T14:44:52.658Z,-2.70
2022-12-13T14:47:23.326Z,-2.70
2022-12-13T14:49:56.997Z,-2.80
2022-12-13T14:52:28.512Z,-2.70
2022-12-13T14:55:01.092Z,-2.70
2022-12-13T14:57:33.063Z,-2.70
2022-12-13T15:00:21.370Z,-2.70
2022-12-13T15:02:53.875Z,-2.60
2022-12-13T15:05:28.781Z,-2.70
2022-12-13T15:07:58.508Z,-2.70
2022-12-13T15:10:35.545Z,-2.70
2022-12-13T15:13:04.300Z,-2.60
2022-12-13T15:15:35.140Z,-2.60
2022-12-13T15:18:09.257Z,-2.70
2022-12-13T15:20:41.532Z,-2.70
2022-12-13T15:23:16.556Z,-2.70
2022-12-13T15:25:48.400Z,-2.70
2022-12-13T15:28:21.859Z,-2.70
2022-12-13T15:30:51.756Z,-2.60
2022-12-13T15:33:27.649Z,-2.70
2022-12-13T15:36:12.654Z,-2.60
2022-12-13T15:38:47.968Z,-2.60
2022-12-13T15:41:20.610Z,-2.60
2022-12-13T15:43:57.201Z,-2.60
2022-12-13T15:46:40.869Z,-2.60
2022-12-13T15:49:35.456Z,-2.60
2022-12-13T15:52:35.793Z,-2.60
2022-12-13T15:55:29.250Z,-2.60
2022-12-13T15:58:26.044Z,-2.60
2022-12-13T16:00:55.484Z,-2.60
2022-12-13T16:03:27.121Z,-2.60
2022-12-13T16:05:57.936Z,-2.60
2022-12-13T16:08:30.449Z,-2.60
2022-12-13T16:11:00.363Z,-2.70
2022-12-13T16:13:32.516Z,-2.70
2022-12-13T16:16:09.628Z,-2.70
2022-12-13T16:18:46.549Z,-2.70
2022-12-13T16:21:15.895Z,-2.70
2022-12-13T16:23:48.185Z,-2.70
2022-12-13T16:26:24.323Z,-2.60
2022-12-13T16:28:59.004Z,-2.60
2022-12-13T16:31:36.094Z,-2.60
2022-12-13T16:34:05.487Z,-2.60
2022-12-13T16:36:34.423Z,-2.50
2022-12-13T16:39:03.162Z,-2.60
2022-12-13T16:41:32.654Z,-2.60
2022-12-13T16:44:04.499Z,-2.60
2022-12-13T16:47:12.189Z,-2.50
2022-12-13T16:49:27.229Z,-2.50
2022-12-13T16:51:57.074Z,-2.50
2022-12-13T16:54:28.005Z,-2.60
2022-12-13T16:56:59.409Z,-2.50
2022-12-13T16:59:31.809Z,-2.50
2022-12-13T17:02:00.647Z,-2.50
2022-12-13T17:04:29.410Z,-2.50
2022-12-13T17:06:58.079Z,-2.40
2022-12-13T17:09:26.951Z,-2.50
2022-12-13T17:11:55.740Z,-2.50
2022-12-13T17:14:24.613Z,-2.50
2022-12-13T17:16:55.374Z,-2.50
2022-12-13T17:19:24.293Z,-2.50
2022-12-13T17:21:53.581Z,-2.70
2022-12-13T17:24:22.711Z,-2.50
2022-12-13T17:26:55.291Z,-2.50
2022-12-13T17:29:25.678Z,-2.50
2022-12-13T17:31:56.081Z,-2.50
2022-12-13T17:34:24.896Z,-2.60
2022-12-13T17:36:53.520Z,-2.60
2022-12-13T17:39:22.595Z,-2.70
2022-12-13T17:41:54.803Z,-2.70
2022-12-13T17:44:25.359Z,-2.60
2022-12-13T17:46:56.106Z,-2.60
2022-12-13T17:49:27.183Z,-2.70
2022-12-13T17:51:56.247Z,-2.70
2022-12-13T17:54:26.858Z,-2.60
2022-12-13T17:56:56.323Z,-2.70
2022-12-13T17:59:25.507Z,-2.70
2022-12-13T18:01:55.857Z,-2.70
2022-12-13T18:04:24.749Z,-2.70
2022-12-13T18:06:53.636Z,-2.70
2022-12-13T18:09:22.528Z,-2.80
2022-12-13T18:11:51.309Z,-2.80
2022-12-13T18:14:19.984Z,-2.60
2022-12-13T18:16:48.764Z,-2.70
2022-12-13T18:19:19.370Z,-2.60
2022-12-13T18:21:48.593Z,-2.60
2022-12-13T18:24:17.695Z,-2.60
2022-12-13T18:26:46.533Z,-2.60
2022-12-13T18:29:15.729Z,-2.60
2022-12-13T18:31:44.742Z,-2.60
2022-12-13T18:34:14.053Z,-2.60
2022-12-13T18:36:44.980Z,-2.50
2022-12-13T18:39:13.925Z,-2.60
2022-12-13T18:41:42.739Z,-2.60
2022-12-13T18:44:13.781Z,-2.60
2022-12-13T18:46:46.057Z,-2.60
2022-12-13T18:49:15.237Z,-2.60
2022-12-13T18:51:45.349Z,-2.60
2022-12-13T18:54:14.258Z,-2.50
2022-12-13T18:56:43.497Z,-2.60
2022-12-13T18:59:12.695Z,-2.50
2022-12-13T19:01:42.101Z,-2.50
2022-12-13T19:04:11.004Z,-2.50
2022-12-13T19:06:39.707Z,-2.50
2022-12-13T19:09:10.181Z,-2.50
2022-12-13T19:11:39.104Z,-2.50
2022-12-13T19:14:08.448Z,-2.50
2022-12-13T19:16:40.753Z,-2.50
2022-12-13T19:19:09.716Z,-2.50
2022-12-13T19:21:38.534Z,-2.50
2022-12-13T19:24:10.951Z,-2.50
2022-12-13T19:26:40.855Z,-2.50
2022-12-13T19:29:09.474Z,-2.50
2022-12-13T19:31:38.651Z,-2.40
2022-12-13T19:34:07.469Z,-2.50
2022-12-13T19:36:36.103Z,-2.50
2022-12-13T19:39:04.940Z,-2.40
2022-12-13T19:41:34.991Z,-2.50
2022-12-13T19:44:05.052Z,-2.50
2022-12-13T19:46:34.083Z,-2.50
2022-12-13T19:49:03.324Z,-2.50
2022-12-13T19:51:39.013Z,-2.50
2022-12-13T19:54:11.358Z,-2.60
2022-12-13T19:56:41.586Z,-2.60
2022-12-13T19:59:11.275Z,-2.70
2022-12-13T20:01:40.007Z,-2.60
2022-12-13T20:04:08.697Z,-2.60
2022-12-13T20:06:37.341Z,-2.60
2022-12-13T20:09:06.052Z,-2.60
2022-12-13T20:11:35.631Z,-2.60
2022-12-13T20:14:06.211Z,-2.70
2022-12-13T20:16:34.940Z,-2.70
2022-12-13T20:19:04.443Z,-2.70
2022-12-13T20:21:33.196Z,-2.70
2022-12-13T20:24:02.122Z,-2.70
2022-12-13T20:26:33.497Z,-2.60
2022-12-13T20:29:02.631Z,-2.60
2022-12-13T20:31:34.992Z,-2.70
2022-12-13T20:34:06.882Z,-2.60
2022-12-13T20:36:35.636Z,-2.70
2022-12-13T20:39:05.957Z,-2.70
2022-12-13T20:41:36.771Z,-2.70
2022-12-13T20:44:08.140Z,-2.70
2022-12-13T20:46:38.595Z,-2.70
2022-12-13T20:49:10.037Z,-2.70
2022-12-13T20:51:41.619Z,-2.70
2022-12-13T20:54:10.746Z,-2.70
2022-12-13T20:56:42.707Z,-2.70
2022-12-13T20:59:14.544Z,-2.80
2022-12-13T21:01:51.241Z,-2.80
2022-12-13T21:04:20.227Z,-2.80
2022-12-13T21:06:49.555Z,-2.70
2022-12-13T21:09:18.440Z,-2.80
2022-12-13T21:11:48.938Z,-2.80
2022-12-13T21:14:23.080Z,-2.90
2022-12-13T21:16:55.197Z,-2.90
2022-12-13T21:19:25.572Z,-3.00
2022-12-13T21:21:55.623Z,-3.00
2022-12-13T21:24:26.111Z,-3.10
2022-12-13T21:27:05.037Z,-3.20
2022-12-13T21:29:34.270Z,-3.20
2022-12-13T21:32:06.125Z,-3.40
2022-12-13T21:34:35.014Z,-3.40
2022-12-13T21:37:06.563Z,-3.50
2022-12-13T21:39:35.308Z,-3.60
2022-12-13T21:42:04.351Z,-3.70
2022-12-13T21:44:32.982Z,-3.80
2022-12-13T21:47:17.121Z,-4.00
2022-12-13T21:49:48.792Z,-4.10
2022-12-13T21:52:18.415Z,-4.20
2022-12-13T21:54:47.245Z,-4.30
2022-12-13T21:57:33.573Z,-4.40
2022-12-13T22:00:02.679Z,-4.40
2022-12-13T22:02:31.679Z,-4.50
2022-12-13T22:05:02.002Z,-4.60
2022-12-13T22:07:32.325Z,-4.60
2022-12-13T22:10:02.227Z,-4.70
2022-12-13T22:12:35.163Z,-4.80
2022-12-13T22:15:05.509Z,-4.90
2022-12-13T22:17:36.145Z,-4.90
2022-12-13T22:20:08.519Z,-5.00
2022-12-13T22:22:38.989Z,-5.10
2022-12-13T22:25:09.430Z,-5.00
2022-12-13T22:27:38.838Z,-5.10
2022-12-13T22:30:09.045Z,-5.10
2022-12-13T22:32:37.996Z,-5.10
2022-12-13T22:35:09.071Z,-5.20
2022-12-13T22:37:39.898Z,-5.30
2022-12-13T22:40:12.322Z,-5.30
2022-12-13T22:42:41.111Z,-5.40
2022-12-13T22:45:10.297Z,-5.40
2022-12-13T22:47:39.117Z,-5.40
2022-12-13T22:50:10.064Z,-5.50
2022-12-13T22:52:38.669Z,-5.50
2022-12-13T22:55:09.336Z,-5.50
2022-12-13T22:57:38.014Z,-5.60
2022-12-13T23:00:10.253Z,-5.60
2022-12-13T23:02:39.283Z,-5.60
2022-12-13T23:05:11.169Z,-5.70
2022-12-13T23:07:39.798Z,-5.70
2022-12-13T23:10:29.615Z,-5.70
2022-12-13T23:13:03.370Z,-5.70
2022-12-13T23:15:32.941Z,-5.70
2022-12-13T23:18:01.689Z,-5.70
2022-12-13T23:20:31.854Z,-5.80
2022-12-13T23:23:00.600Z,-5.80
2022-12-13T23:25:29.361Z,-5.80
2022-12-13T23:27:58.273Z,-5.90
2022-12-13T23:30:26.905Z,-5.90
2022-12-13T23:32:57.366Z,-6.00
2022-12-13T23:35:29.252Z,-6.00
2022-12-13T23:37:59.368Z,-6.10
2022-12-13T23:40:28.039Z,-6.10
2022-12-13T23:42:57.473Z,-6.20
2022-12-13T23:45:27.109Z,-6.20
2022-12-13T23:47:57.017Z,-6.20
2022-12-13T23:50:26.038Z,-6.20
2022-12-13T23:52:54.971Z,-6.20
2022-12-13T23:55:25.220Z,-6.30
2022-12-13T23:57:54.008Z,-6.40
